sensor_id;sensor_type;location;lat;lon;timestamp;temperature;humidity
5280;DHT22;2663;53.588;10.010;2024-01-16T00:02:18;2.00;99.90
5280;DHT22;2663;53.588;10.010;2024-01-16T00:04:45;2.00;99.90
5280;DHT22;2663;53.588;10.010;2024-01-16T00:07:12;2.00;99.90
5280;DHT22;2663;53.588;10.010;2024-01-16T00:09:39;1.90;99.90
5280;DHT22;2663;53.588;10.010;2024-01-16T00:12:06;1.80;99.90
5280;DHT22;2663;53.588;10.010;2024-01-16T00:14:36;1.80;99.90
5280;DHT22;2663;53.588;10.010;2024-01-16T00:17:03;1.70;99.90
5280;DHT22;2663;53.588;10.010;2024-01-16T00:19:30;1.70;99.90
5280;DHT22;2663;53.588;10.010;2024-01-16T00:21:57;1.80;99.90
5280;DHT22;2663;53.588;10.010;2024-01-16T00:24:24;1.80;99.90
5280;DHT22;2663;53.588;10.010;2024-01-16T00:26:51;1.70;99.90
5280;DHT22;2663;53.588;10.010;2024-01-16T00:29:18;1.80;99.90
5280;DHT22;2663;53.588;10.010;2024-01-16T00:31:44;1.70;99.90
5280;DHT22;2663;53.588;10.010;2024-01-16T00:34:11;1.70;99.90
5280;DHT22;2663;53.588;10.010;2024-01-16T00:36:38;1.60;99.90
5280;DHT22;2663;53.588;10.010;2024-01-16T00:39:05;1.50;99.90
5280;DHT22;2663;53.588;10.010;2024-01-16T00:41:31;1.10;99.90
5280;DHT22;2663;53.588;10.010;2024-01-16T00:43:58;0.90;99.90
5280;DHT22;2663;53.588;10.010;2024-01-16T00:46:25;2.90;99.90
5280;DHT22;2663;53.588;10.010;2024-01-16T00:48:52;1.10;99.90
5280;DHT22;2663;53.588;10.010;2024-01-16T00:51:18;1.20;99.90
5280;DHT22;2663;53.588;10.010;2024-01-16T00:53:45;1.30;99.90
5280;DHT22;2663;53.588;10.010;2024-01-16T00:56:12;1.20;99.90
5280;DHT22;2663;53.588;10.010;2024-01-16T00:58:39;1.40;99.90
5280;DHT22;2663;53.588;10.010;2024-01-16T01:01:06;1.20;99.90
5280;DHT22;2663;53.588;10.010;2024-01-16T01:03:33;1.60;99.90
5280;DHT22;2663;53.588;10.010;2024-01-16T01:06:00;2.10;99.90
5280;DHT22;2663;53.588;10.010;2024-01-16T01:08:28;1.40;99.90
5280;DHT22;2663;53.588;10.010;2024-01-16T01:10:54;1.30;99.90
5280;DHT22;2663;53.588;10.010;2024-01-16T01:13:22;1.10;99.90
5280;DHT22;2663;53.588;10.010;2024-01-16T01:15:48;1.20;99.90
5280;DHT22;2663;53.588;10.010;2024-01-16T01:18:15;1.20;99.90
5280;DHT22;2663;53.588;10.010;2024-01-16T01:20:42;1.20;99.90
5280;DHT22;2663;53.588;10.010;2024-01-16T01:23:09;1.10;99.90
5280;DHT22;2663;53.588;10.010;2024-01-16T01:25:36;1.10;99.90
5280;DHT22;2663;53.588;10.010;2024-01-16T01:28:03;1.30;99.90
5280;DHT22;2663;53.588;10.010;2024-01-16T01:30:31;1.40;99.90
5280;DHT22;2663;53.588;10.010;2024-01-16T01:32:58;1.40;99.90
5280;DHT22;2663;53.588;10.010;2024-01-16T01:35:25;1.30;99.90
5280;DHT22;2663;53.588;10.010;2024-01-16T01:37:51;1.20;99.90
5280;DHT22;2663;53.588;10.010;2024-01-16T01:40:18;1.10;99.90
5280;DHT22;2663;53.588;10.010;2024-01-16T01:42:45;1.20;99.90
5280;DHT22;2663;53.588;10.010;2024-01-16T01:45:11;1.20;99.90
5280;DHT22;2663;53.588;10.010;2024-01-16T01:47:40;1.20;99.90
5280;DHT22;2663;53.588;10.010;2024-01-16T01:50:09;1.30;99.90
5280;DHT22;2663;53.588;10.010;2024-01-16T01:52:38;1.40;99.90
5280;DHT22;2663;53.588;10.010;2024-01-16T01:55:07;1.50;99.90
5280;DHT22;2663;53.588;10.010;2024-01-16T01:57:36;1.50;99.90
5280;DHT22;2663;53.588;10.010;2024-01-16T02:00:03;1.40;99.90
5280;DHT22;2663;53.588;10.010;2024-01-16T02:02:31;1.40;99.90
5280;DHT22;2663;53.588;10.010;2024-01-16T02:04:58;1.60;99.90
5280;DHT22;2663;53.588;10.010;2024-01-16T02:07:25;1.70;99.90
5280;DHT22;2663;53.588;10.010;2024-01-16T02:09:52;1.70;99.90
5280;DHT22;2663;53.588;10.010;2024-01-16T02:12:19;1.60;99.90
5280;DHT22;2663;53.588;10.010;2024-01-16T02:14:51;1.50;99.90
5280;DHT22;2663;53.588;10.010;2024-01-16T02:17:17;1.40;99.90
5280;DHT22;2663;53.588;10.010;2024-01-16T02:19:44;1.60;99.90
5280;DHT22;2663;53.588;10.010;2024-01-16T02:22:19;1.50;99.90
5280;DHT22;2663;53.588;10.010;2024-01-16T02:24:48;1.50;99.90
5280;DHT22;2663;53.588;10.010;2024-01-16T02:27:15;1.40;99.90
5280;DHT22;2663;53.588;10.010;2024-01-16T02:29:42;1.40;99.90
5280;DHT22;2663;53.588;10.010;2024-01-16T02:32:12;1.50;99.90
5280;DHT22;2663;53.588;10.010;2024-01-16T02:34:40;1.50;99.90
5280;DHT22;2663;53.588;10.010;2024-01-16T02:37:07;1.60;99.90
5280;DHT22;2663;53.588;10.010;2024-01-16T02:39:33;1.70;99.90
5280;DHT22;2663;53.588;10.010;2024-01-16T02:42:00;1.60;99.90
5280;DHT22;2663;53.588;10.010;2024-01-16T02:44:27;1.60;99.90
5280;DHT22;2663;53.588;10.010;2024-01-16T02:46:54;1.50;99.90
5280;DHT22;2663;53.588;10.010;2024-01-16T02:49:21;1.50;99.90
5280;DHT22;2663;53.588;10.010;2024-01-16T02:51:48;1.60;99.90
5280;DHT22;2663;53.588;10.010;2024-01-16T02:54:15;1.60;99.90
5280;DHT22;2663;53.588;10.010;2024-01-16T02:56:42;1.80;99.90
5280;DHT22;2663;53.588;10.010;2024-01-16T02:59:09;1.70;99.90
5280;DHT22;2663;53.588;10.010;2024-01-16T03:01:36;1.50;99.90
5280;DHT22;2663;53.588;10.010;2024-01-16T03:04:03;1.30;99.90
5280;DHT22;2663;53.588;10.010;2024-01-16T03:06:30;1.10;99.90
5280;DHT22;2663;53.588;10.010;2024-01-16T03:08:57;1.20;99.90
5280;DHT22;2663;53.588;10.010;2024-01-16T03:11:24;1.00;99.90
5280;DHT22;2663;53.588;10.010;2024-01-16T03:13:51;1.10;99.90
5280;DHT22;2663;53.588;10.010;2024-01-16T03:16:19;1.20;99.90
5280;DHT22;2663;53.588;10.010;2024-01-16T03:18:46;1.30;99.90
5280;DHT22;2663;53.588;10.010;2024-01-16T03:21:14;1.20;99.90
5280;DHT22;2663;53.588;10.010;2024-01-16T03:23:41;1.00;99.90
5280;DHT22;2663;53.588;10.010;2024-01-16T03:26:12;1.10;99.90
5280;DHT22;2663;53.588;10.010;2024-01-16T03:28:40;1.00;99.90
5280;DHT22;2663;53.588;10.010;2024-01-16T03:31:07;1.00;99.90
5280;DHT22;2663;53.588;10.010;2024-01-16T03:33:34;0.90;99.90
5280;DHT22;2663;53.588;10.010;2024-01-16T03:36:01;1.00;99.90
5280;DHT22;2663;53.588;10.010;2024-01-16T03:38:28;0.90;99.90
5280;DHT22;2663;53.588;10.010;2024-01-16T03:40:55;1.00;99.90
5280;DHT22;2663;53.588;10.010;2024-01-16T03:43:22;1.10;99.90
5280;DHT22;2663;53.588;10.010;2024-01-16T03:45:48;1.30;99.90
5280;DHT22;2663;53.588;10.010;2024-01-16T03:48:15;1.20;99.90
5280;DHT22;2663;53.588;10.010;2024-01-16T03:50:42;1.20;99.90
5280;DHT22;2663;53.588;10.010;2024-01-16T03:53:10;1.30;99.90
5280;DHT22;2663;53.588;10.010;2024-01-16T03:55:37;1.30;99.90
5280;DHT22;2663;53.588;10.010;2024-01-16T03:58:04;1.30;99.90
5280;DHT22;2663;53.588;10.010;2024-01-16T04:00:31;2.10;99.90
5280;DHT22;2663;53.588;10.010;2024-01-16T04:02:57;1.10;99.90
5280;DHT22;2663;53.588;10.010;2024-01-16T04:05:24;1.20;99.90
5280;DHT22;2663;53.588;10.010;2024-01-16T04:07:51;1.30;99.90
5280;DHT22;2663;53.588;10.010;2024-01-16T04:10:19;1.50;99.90
5280;DHT22;2663;53.588;10.010;2024-01-16T04:12:45;1.50;99.90
5280;DHT22;2663;53.588;10.010;2024-01-16T04:15:12;1.30;99.90
5280;DHT22;2663;53.588;10.010;2024-01-16T04:17:39;1.20;99.90
5280;DHT22;2663;53.588;10.010;2024-01-16T04:20:06;1.30;99.90
5280;DHT22;2663;53.588;10.010;2024-01-16T04:22:35;1.20;99.90
5280;DHT22;2663;53.588;10.010;2024-01-16T04:25:03;1.00;99.90
5280;DHT22;2663;53.588;10.010;2024-01-16T04:27:31;1.10;99.90
5280;DHT22;2663;53.588;10.010;2024-01-16T04:29:58;1.10;99.90
5280;DHT22;2663;53.588;10.010;2024-01-16T04:32:25;2.10;99.90
5280;DHT22;2663;53.588;10.010;2024-01-16T04:34:52;1.20;99.90
5280;DHT22;2663;53.588;10.010;2024-01-16T04:37:18;1.10;99.90
5280;DHT22;2663;53.588;10.010;2024-01-16T04:39:45;1.80;99.90
5280;DHT22;2663;53.588;10.010;2024-01-16T04:42:12;1.10;99.90
5280;DHT22;2663;53.588;10.010;2024-01-16T04:44:39;1.10;99.90
5280;DHT22;2663;53.588;10.010;2024-01-16T04:47:06;1.20;99.90
5280;DHT22;2663;53.588;10.010;2024-01-16T04:49:33;1.20;99.90
5280;DHT22;2663;53.588;10.010;2024-01-16T04:51:59;1.20;99.90
5280;DHT22;2663;53.588;10.010;2024-01-16T04:54:26;0.70;99.90
5280;DHT22;2663;53.588;10.010;2024-01-16T04:56:53;0.70;99.90
5280;DHT22;2663;53.588;10.010;2024-01-16T04:59:19;0.90;99.90
5280;DHT22;2663;53.588;10.010;2024-01-16T05:01:46;1.00;99.90
5280;DHT22;2663;53.588;10.010;2024-01-16T05:04:13;1.00;99.90
5280;DHT22;2663;53.588;10.010;2024-01-16T05:06:40;0.90;99.90
5280;DHT22;2663;53.588;10.010;2024-01-16T05:09:06;0.70;99.90
5280;DHT22;2663;53.588;10.010;2024-01-16T05:11:35;0.60;99.90
5280;DHT22;2663;53.588;10.010;2024-01-16T05:14:02;0.80;99.90
5280;DHT22;2663;53.588;10.010;2024-01-16T05:16:29;0.70;99.90
5280;DHT22;2663;53.588;10.010;2024-01-16T05:18:56;0.90;99.90
5280;DHT22;2663;53.588;10.010;2024-01-16T05:21:22;0.90;99.90
5280;DHT22;2663;53.588;10.010;2024-01-16T05:23:49;0.90;99.90
5280;DHT22;2663;53.588;10.010;2024-01-16T05:26:16;0.80;99.90
5280;DHT22;2663;53.588;10.010;2024-01-16T05:28:43;0.70;99.90
5280;DHT22;2663;53.588;10.010;2024-01-16T05:31:09;0.90;99.90
5280;DHT22;2663;53.588;10.010;2024-01-16T05:33:36;0.70;99.90
5280;DHT22;2663;53.588;10.010;2024-01-16T05:36:03;0.80;99.90
5280;DHT22;2663;53.588;10.010;2024-01-16T05:38:30;0.80;99.90
5280;DHT22;2663;53.588;10.010;2024-01-16T05:40:57;0.80;99.90
5280;DHT22;2663;53.588;10.010;2024-01-16T05:43:24;0.70;99.90
5280;DHT22;2663;53.588;10.010;2024-01-16T05:45:50;0.70;99.90
5280;DHT22;2663;53.588;10.010;2024-01-16T05:48:18;0.70;99.90
5280;DHT22;2663;53.588;10.010;2024-01-16T05:50:45;0.70;99.90
5280;DHT22;2663;53.588;10.010;2024-01-16T05:53:12;0.60;99.90
5280;DHT22;2663;53.588;10.010;2024-01-16T05:55:39;0.70;99.90
5280;DHT22;2663;53.588;10.010;2024-01-16T05:58:06;0.80;99.90
5280;DHT22;2663;53.588;10.010;2024-01-16T06:00:32;0.80;99.90
5280;DHT22;2663;53.588;10.010;2024-01-16T06:03:00;0.90;99.90
5280;DHT22;2663;53.588;10.010;2024-01-16T06:05:27;0.90;99.90
5280;DHT22;2663;53.588;10.010;2024-01-16T06:07:54;0.90;99.90
5280;DHT22;2663;53.588;10.010;2024-01-16T06:10:21;0.90;99.90
5280;DHT22;2663;53.588;10.010;2024-01-16T06:12:47;0.90;99.90
5280;DHT22;2663;53.588;10.010;2024-01-16T06:15:14;0.90;99.90
5280;DHT22;2663;53.588;10.010;2024-01-16T06:17:41;1.00;99.90
5280;DHT22;2663;53.588;10.010;2024-01-16T06:20:08;1.10;99.90
5280;DHT22;2663;53.588;10.010;2024-01-16T06:22:35;1.80;99.90
5280;DHT22;2663;53.588;10.010;2024-01-16T06:25:02;1.20;99.90
5280;DHT22;2663;53.588;10.010;2024-01-16T06:27:29;1.10;99.90
5280;DHT22;2663;53.588;10.010;2024-01-16T06:29:55;1.10;99.90
5280;DHT22;2663;53.588;10.010;2024-01-16T06:32:22;1.10;99.90
5280;DHT22;2663;53.588;10.010;2024-01-16T06:34:49;0.90;99.90
5280;DHT22;2663;53.588;10.010;2024-01-16T06:37:16;0.80;99.90
5280;DHT22;2663;53.588;10.010;2024-01-16T06:39:43;0.80;99.90
5280;DHT22;2663;53.588;10.010;2024-01-16T06:42:10;0.90;99.90
5280;DHT22;2663;53.588;10.010;2024-01-16T06:44:37;0.80;99.90
5280;DHT22;2663;53.588;10.010;2024-01-16T06:47:04;0.80;99.90
5280;DHT22;2663;53.588;10.010;2024-01-16T06:49:31;0.90;99.90
5280;DHT22;2663;53.588;10.010;2024-01-16T06:51:58;0.80;99.90
5280;DHT22;2663;53.588;10.010;2024-01-16T06:54:25;2.10;99.90
5280;DHT22;2663;53.588;10.010;2024-01-16T06:56:52;3.40;99.90
5280;DHT22;2663;53.588;10.010;2024-01-16T06:59:19;2.10;99.90
5280;DHT22;2663;53.588;10.010;2024-01-16T07:01:48;1.50;99.90
5280;DHT22;2663;53.588;10.010;2024-01-16T07:04:15;1.50;99.90
5280;DHT22;2663;53.588;10.010;2024-01-16T07:06:42;1.40;99.90
5280;DHT22;2663;53.588;10.010;2024-01-16T07:09:10;1.20;99.90
5280;DHT22;2663;53.588;10.010;2024-01-16T07:11:39;1.30;99.90
5280;DHT22;2663;53.588;10.010;2024-01-16T07:14:10;1.10;99.90
5280;DHT22;2663;53.588;10.010;2024-01-16T07:16:37;1.10;99.90
5280;DHT22;2663;53.588;10.010;2024-01-16T07:19:04;1.00;99.90
5280;DHT22;2663;53.588;10.010;2024-01-16T07:21:31;1.00;99.90
5280;DHT22;2663;53.588;10.010;2024-01-16T07:23:58;1.00;99.90
5280;DHT22;2663;53.588;10.010;2024-01-16T07:26:24;1.10;99.90
5280;DHT22;2663;53.588;10.010;2024-01-16T07:28:51;1.20;99.90
5280;DHT22;2663;53.588;10.010;2024-01-16T07:31:18;1.30;99.90
5280;DHT22;2663;53.588;10.010;2024-01-16T07:33:45;1.10;99.90
5280;DHT22;2663;53.588;10.010;2024-01-16T07:36:13;1.10;99.90
5280;DHT22;2663;53.588;10.010;2024-01-16T07:38:39;1.20;99.90
5280;DHT22;2663;53.588;10.010;2024-01-16T07:41:06;1.20;99.90
5280;DHT22;2663;53.588;10.010;2024-01-16T07:43:33;1.40;99.90
5280;DHT22;2663;53.588;10.010;2024-01-16T07:46:01;1.30;99.90
5280;DHT22;2663;53.588;10.010;2024-01-16T07:48:29;1.30;99.90
5280;DHT22;2663;53.588;10.010;2024-01-16T07:50:56;1.20;99.90
5280;DHT22;2663;53.588;10.010;2024-01-16T07:53:23;1.20;99.90
5280;DHT22;2663;53.588;10.010;2024-01-16T07:55:50;1.10;99.90
5280;DHT22;2663;53.588;10.010;2024-01-16T07:58:16;1.00;99.90
5280;DHT22;2663;53.588;10.010;2024-01-16T08:00:43;1.10;99.90
5280;DHT22;2663;53.588;10.010;2024-01-16T08:03:10;1.00;99.90
5280;DHT22;2663;53.588;10.010;2024-01-16T08:05:38;1.00;99.90
5280;DHT22;2663;53.588;10.010;2024-01-16T08:08:07;1.00;99.90
5280;DHT22;2663;53.588;10.010;2024-01-16T08:10:34;1.00;99.90
5280;DHT22;2663;53.588;10.010;2024-01-16T08:13:01;1.10;99.90
5280;DHT22;2663;53.588;10.010;2024-01-16T08:15:27;1.20;99.90
5280;DHT22;2663;53.588;10.010;2024-01-16T08:17:54;1.30;99.90
5280;DHT22;2663;53.588;10.010;2024-01-16T08:20:21;1.20;99.90
5280;DHT22;2663;53.588;10.010;2024-01-16T08:22:48;1.20;99.90
5280;DHT22;2663;53.588;10.010;2024-01-16T08:25:16;1.20;99.90
5280;DHT22;2663;53.588;10.010;2024-01-16T08:27:43;1.20;99.90
5280;DHT22;2663;53.588;10.010;2024-01-16T08:30:10;1.30;99.90
5280;DHT22;2663;53.588;10.010;2024-01-16T08:32:39;1.40;99.90
5280;DHT22;2663;53.588;10.010;2024-01-16T08:35:06;1.40;99.90
5280;DHT22;2663;53.588;10.010;2024-01-16T08:37:33;1.40;99.90
5280;DHT22;2663;53.588;10.010;2024-01-16T08:40:01;1.30;99.90
5280;DHT22;2663;53.588;10.010;2024-01-16T08:42:27;1.40;99.90
5280;DHT22;2663;53.588;10.010;2024-01-16T08:44:54;1.40;99.90
5280;DHT22;2663;53.588;10.010;2024-01-16T08:47:21;1.30;99.90
5280;DHT22;2663;53.588;10.010;2024-01-16T08:49:48;1.40;99.90
5280;DHT22;2663;53.588;10.010;2024-01-16T08:52:15;1.40;99.90
5280;DHT22;2663;53.588;10.010;2024-01-16T08:54:42;1.30;99.90
5280;DHT22;2663;53.588;10.010;2024-01-16T08:57:09;1.30;99.90
5280;DHT22;2663;53.588;10.010;2024-01-16T08:59:40;1.30;99.90
5280;DHT22;2663;53.588;10.010;2024-01-16T09:02:07;1.30;99.90
5280;DHT22;2663;53.588;10.010;2024-01-16T09:04:34;1.30;99.90
5280;DHT22;2663;53.588;10.010;2024-01-16T09:07:01;1.30;99.90
5280;DHT22;2663;53.588;10.010;2024-01-16T09:09:31;1.30;99.90
5280;DHT22;2663;53.588;10.010;2024-01-16T09:11:58;2.00;99.90
5280;DHT22;2663;53.588;10.010;2024-01-16T09:14:25;2.30;99.90
5280;DHT22;2663;53.588;10.010;2024-01-16T09:16:53;1.80;99.90
5280;DHT22;2663;53.588;10.010;2024-01-16T09:19:20;1.70;99.90
5280;DHT22;2663;53.588;10.010;2024-01-16T09:21:48;1.50;99.90
5280;DHT22;2663;53.588;10.010;2024-01-16T09:24:15;1.50;99.90
5280;DHT22;2663;53.588;10.010;2024-01-16T09:26:42;1.70;99.90
5280;DHT22;2663;53.588;10.010;2024-01-16T09:29:09;1.50;99.90
5280;DHT22;2663;53.588;10.010;2024-01-16T09:31:36;1.40;99.90
5280;DHT22;2663;53.588;10.010;2024-01-16T09:34:03;1.40;99.90
5280;DHT22;2663;53.588;10.010;2024-01-16T09:36:35;1.40;99.90
5280;DHT22;2663;53.588;10.010;2024-01-16T09:39:06;1.50;99.90
5280;DHT22;2663;53.588;10.010;2024-01-16T09:41:35;1.50;99.90
5280;DHT22;2663;53.588;10.010;2024-01-16T09:44:01;1.60;99.90
5280;DHT22;2663;53.588;10.010;2024-01-16T09:46:31;1.50;99.90
5280;DHT22;2663;53.588;10.010;2024-01-16T09:48:59;1.40;99.90
5280;DHT22;2663;53.588;10.010;2024-01-16T09:51:27;1.70;99.90
5280;DHT22;2663;53.588;10.010;2024-01-16T09:53:53;1.60;99.90
5280;DHT22;2663;53.588;10.010;2024-01-16T09:56:22;1.50;99.90
5280;DHT22;2663;53.588;10.010;2024-01-16T09:58:56;1.50;99.90
5280;DHT22;2663;53.588;10.010;2024-01-16T10:01:27;1.40;99.90
5280;DHT22;2663;53.588;10.010;2024-01-16T10:03:54;1.40;99.90
5280;DHT22;2663;53.588;10.010;2024-01-16T10:06:20;1.50;99.90
5280;DHT22;2663;53.588;10.010;2024-01-16T10:08:49;1.50;99.90
5280;DHT22;2663;53.588;10.010;2024-01-16T10:11:16;1.60;99.90
5280;DHT22;2663;53.588;10.010;2024-01-16T10:13:44;1.60;99.90
5280;DHT22;2663;53.588;10.010;2024-01-16T10:16:11;1.60;99.90
5280;DHT22;2663;53.588;10.010;2024-01-16T10:18:37;1.50;99.90
5280;DHT22;2663;53.588;10.010;2024-01-16T10:21:05;1.60;99.90
5280;DHT22;2663;53.588;10.010;2024-01-16T10:23:45;1.70;99.90
5280;DHT22;2663;53.588;10.010;2024-01-16T10:26:12;1.70;99.90
5280;DHT22;2663;53.588;10.010;2024-01-16T10:28:42;1.70;99.90
5280;DHT22;2663;53.588;10.010;2024-01-16T10:31:13;1.70;99.90
5280;DHT22;2663;53.588;10.010;2024-01-16T10:33:43;1.80;99.90
5280;DHT22;2663;53.588;10.010;2024-01-16T10:36:14;1.80;99.90
5280;DHT22;2663;53.588;10.010;2024-01-16T10:38:44;1.90;99.90
5280;DHT22;2663;53.588;10.010;2024-01-16T10:41:16;2.00;99.90
5280;DHT22;2663;53.588;10.010;2024-01-16T10:43:44;2.00;99.90
5280;DHT22;2663;53.588;10.010;2024-01-16T10:46:18;2.00;99.90
5280;DHT22;2663;53.588;10.010;2024-01-16T10:49:01;2.10;99.90
5280;DHT22;2663;53.588;10.010;2024-01-16T10:51:29;2.10;99.90
5280;DHT22;2663;53.588;10.010;2024-01-16T10:54:00;2.10;99.90
5280;DHT22;2663;53.588;10.010;2024-01-16T10:56:29;2.00;99.90
5280;DHT22;2663;53.588;10.010;2024-01-16T11:01:45;2.00;99.90
5280;DHT22;2663;53.588;10.010;2024-01-16T11:04:12;2.30;99.90
5280;DHT22;2663;53.588;10.010;2024-01-16T11:06:41;2.10;99.90
5280;DHT22;2663;53.588;10.010;2024-01-16T11:09:09;2.10;99.90
5280;DHT22;2663;53.588;10.010;2024-01-16T11:11:37;2.70;99.90
5280;DHT22;2663;53.588;10.010;2024-01-16T11:14:06;2.20;99.90
5280;DHT22;2663;53.588;10.010;2024-01-16T11:16:33;2.20;99.90
5280;DHT22;2663;53.588;10.010;2024-01-16T11:19:01;2.20;99.90
5280;DHT22;2663;53.588;10.010;2024-01-16T11:21:50;2.20;99.90
5280;DHT22;2663;53.588;10.010;2024-01-16T11:24:18;2.20;99.90
5280;DHT22;2663;53.588;10.010;2024-01-16T11:26:45;2.20;99.90
5280;DHT22;2663;53.588;10.010;2024-01-16T11:31:54;2.10;99.90
5280;DHT22;2663;53.588;10.010;2024-01-16T11:37:12;2.30;99.90
5280;DHT22;2663;53.588;10.010;2024-01-16T11:39:39;2.60;99.90
5280;DHT22;2663;53.588;10.010;2024-01-16T11:42:07;2.30;99.90
5280;DHT22;2663;53.588;10.010;2024-01-16T11:47:19;2.30;99.90
5280;DHT22;2663;53.588;10.010;2024-01-16T11:50:10;2.30;99.90
5280;DHT22;2663;53.588;10.010;2024-01-16T11:52:44;2.20;99.90
5280;DHT22;2663;53.588;10.010;2024-01-16T11:55:31;1.60;99.90
5280;DHT22;2663;53.588;10.010;2024-01-16T12:01:05;2.30;99.90
5280;DHT22;2663;53.588;10.010;2024-01-16T12:03:32;2.20;99.90
5280;DHT22;2663;53.588;10.010;2024-01-16T12:06:01;2.30;99.90
5280;DHT22;2663;53.588;10.010;2024-01-16T12:08:29;2.40;99.90
5280;DHT22;2663;53.588;10.010;2024-01-16T12:10:56;2.30;99.90
5280;DHT22;2663;53.588;10.010;2024-01-16T12:13:24;2.40;99.90
5280;DHT22;2663;53.588;10.010;2024-01-16T12:16:09;2.40;99.90
5280;DHT22;2663;53.588;10.010;2024-01-16T12:18:35;2.40;99.90
5280;DHT22;2663;53.588;10.010;2024-01-16T12:21:11;2.40;99.90
5280;DHT22;2663;53.588;10.010;2024-01-16T12:23:38;2.40;99.90
5280;DHT22;2663;53.588;10.010;2024-01-16T12:26:21;2.40;99.90
5280;DHT22;2663;53.588;10.010;2024-01-16T12:28:55;2.60;99.90
5280;DHT22;2663;53.588;10.010;2024-01-16T12:31:26;2.40;99.90
5280;DHT22;2663;53.588;10.010;2024-01-16T12:34:04;2.60;99.90
5280;DHT22;2663;53.588;10.010;2024-01-16T12:36:32;2.40;99.90
5280;DHT22;2663;53.588;10.010;2024-01-16T12:38:59;2.40;99.90
5280;DHT22;2663;53.588;10.010;2024-01-16T12:41:28;3.50;99.90
5280;DHT22;2663;53.588;10.010;2024-01-16T12:44:07;2.40;99.90
5280;DHT22;2663;53.588;10.010;2024-01-16T12:46:43;2.60;99.90
5280;DHT22;2663;53.588;10.010;2024-01-16T12:49:10;2.80;99.90
5280;DHT22;2663;53.588;10.010;2024-01-16T12:51:38;2.70;99.90
5280;DHT22;2663;53.588;10.010;2024-01-16T12:54:13;2.70;99.90
5280;DHT22;2663;53.588;10.010;2024-01-16T12:56:40;2.50;99.90
5280;DHT22;2663;53.588;10.010;2024-01-16T12:59:14;2.40;99.90
5280;DHT22;2663;53.588;10.010;2024-01-16T13:01:43;2.40;99.90
5280;DHT22;2663;53.588;10.010;2024-01-16T13:04:11;2.40;99.90
5280;DHT22;2663;53.588;10.010;2024-01-16T13:06:38;2.50;99.90
5280;DHT22;2663;53.588;10.010;2024-01-16T13:09:09;2.50;99.90
5280;DHT22;2663;53.588;10.010;2024-01-16T13:11:53;2.60;99.90
5280;DHT22;2663;53.588;10.010;2024-01-16T13:14:25;2.50;99.90
5280;DHT22;2663;53.588;10.010;2024-01-16T13:16:53;2.70;99.90
5280;DHT22;2663;53.588;10.010;2024-01-16T13:19:22;2.60;99.90
5280;DHT22;2663;53.588;10.010;2024-01-16T13:21:49;2.70;99.90
5280;DHT22;2663;53.588;10.010;2024-01-16T13:24:16;2.50;99.90
5280;DHT22;2663;53.588;10.010;2024-01-16T13:26:50;2.50;99.90
5280;DHT22;2663;53.588;10.010;2024-01-16T13:29:17;2.40;99.90
5280;DHT22;2663;53.588;10.010;2024-01-16T13:31:44;2.40;99.90
5280;DHT22;2663;53.588;10.010;2024-01-16T13:34:11;2.60;99.90
5280;DHT22;2663;53.588;10.010;2024-01-16T13:36:38;2.50;99.90
5280;DHT22;2663;53.588;10.010;2024-01-16T13:39:26;2.40;99.90
5280;DHT22;2663;53.588;10.010;2024-01-16T13:41:53;2.40;99.90
5280;DHT22;2663;53.588;10.010;2024-01-16T13:44:20;2.40;99.90
5280;DHT22;2663;53.588;10.010;2024-01-16T13:46:47;2.40;99.90
5280;DHT22;2663;53.588;10.010;2024-01-16T13:49:31;2.40;99.90
5280;DHT22;2663;53.588;10.010;2024-01-16T13:52:00;2.40;99.90
5280;DHT22;2663;53.588;10.010;2024-01-16T13:54:27;2.40;99.90
5280;DHT22;2663;53.588;10.010;2024-01-16T13:56:53;2.50;99.90
5280;DHT22;2663;53.588;10.010;2024-01-16T13:59:33;2.50;99.90
5280;DHT22;2663;53.588;10.010;2024-01-16T14:02:02;2.40;99.90
5280;DHT22;2663;53.588;10.010;2024-01-16T14:04:29;2.40;99.90
5280;DHT22;2663;53.588;10.010;2024-01-16T14:06:56;2.40;99.90
5280;DHT22;2663;53.588;10.010;2024-01-16T14:09:39;2.20;99.90
5280;DHT22;2663;53.588;10.010;2024-01-16T14:12:09;2.40;99.90
5280;DHT22;2663;53.588;10.010;2024-01-16T14:14:36;2.30;99.90
5280;DHT22;2663;53.588;10.010;2024-01-16T14:17:05;2.30;99.90
5280;DHT22;2663;53.588;10.010;2024-01-16T14:19:31;2.30;99.90
5280;DHT22;2663;53.588;10.010;2024-01-16T14:21:58;2.30;99.90
5280;DHT22;2663;53.588;10.010;2024-01-16T14:24:25;2.30;99.90
5280;DHT22;2663;53.588;10.010;2024-01-16T14:26:52;2.40;99.90
5280;DHT22;2663;53.588;10.010;2024-01-16T14:29:19;2.50;99.90
5280;DHT22;2663;53.588;10.010;2024-01-16T14:31:46;2.50;99.90
5280;DHT22;2663;53.588;10.010;2024-01-16T14:34:16;2.60;99.90
5280;DHT22;2663;53.588;10.010;2024-01-16T14:36:45;2.50;99.90
5280;DHT22;2663;53.588;10.010;2024-01-16T14:39:13;2.50;99.90
5280;DHT22;2663;53.588;10.010;2024-01-16T14:41:44;2.30;99.90
5280;DHT22;2663;53.588;10.010;2024-01-16T14:44:12;2.50;99.90
5280;DHT22;2663;53.588;10.010;2024-01-16T14:46:40;2.40;99.90
5280;DHT22;2663;53.588;10.010;2024-01-16T14:49:09;2.40;99.90
5280;DHT22;2663;53.588;10.010;2024-01-16T14:51:36;2.40;99.90
5280;DHT22;2663;53.588;10.010;2024-01-16T14:54:04;2.40;99.90
5280;DHT22;2663;53.588;10.010;2024-01-16T14:56:31;0.90;99.90
5280;DHT22;2663;53.588;10.010;2024-01-16T14:58:58;2.30;99.90
5280;DHT22;2663;53.588;10.010;2024-01-16T15:01:25;2.30;99.90
5280;DHT22;2663;53.588;10.010;2024-01-16T15:03:52;2.40;99.90
5280;DHT22;2663;53.588;10.010;2024-01-16T15:06:21;2.40;99.90
5280;DHT22;2663;53.588;10.010;2024-01-16T15:08:48;2.30;99.90
5280;DHT22;2663;53.588;10.010;2024-01-16T15:11:15;2.40;99.90
5280;DHT22;2663;53.588;10.010;2024-01-16T15:13:43;2.40;99.90
5280;DHT22;2663;53.588;10.010;2024-01-16T15:16:11;2.40;99.90
5280;DHT22;2663;53.588;10.010;2024-01-16T15:18:38;2.40;99.90
5280;DHT22;2663;53.588;10.010;2024-01-16T15:21:05;2.30;99.90
5280;DHT22;2663;53.588;10.010;2024-01-16T15:23:31;2.40;99.90
5280;DHT22;2663;53.588;10.010;2024-01-16T15:25:58;2.40;99.90
5280;DHT22;2663;53.588;10.010;2024-01-16T15:28:31;2.70;99.90
5280;DHT22;2663;53.588;10.010;2024-01-16T15:30:58;2.50;99.90
5280;DHT22;2663;53.588;10.010;2024-01-16T15:33:25;2.40;99.90
5280;DHT22;2663;53.588;10.010;2024-01-16T15:35:52;2.40;99.90
5280;DHT22;2663;53.588;10.010;2024-01-16T15:38:19;2.40;99.90
5280;DHT22;2663;53.588;10.010;2024-01-16T15:40:45;2.50;99.90
5280;DHT22;2663;53.588;10.010;2024-01-16T15:43:12;2.60;99.90
5280;DHT22;2663;53.588;10.010;2024-01-16T15:45:39;2.60;99.90
5280;DHT22;2663;53.588;10.010;2024-01-16T15:48:06;2.50;99.90
5280;DHT22;2663;53.588;10.010;2024-01-16T15:50:34;2.50;99.90
5280;DHT22;2663;53.588;10.010;2024-01-16T15:53:01;2.50;99.90
5280;DHT22;2663;53.588;10.010;2024-01-16T15:55:27;2.60;99.90
5280;DHT22;2663;53.588;10.010;2024-01-16T15:57:54;2.80;99.90
5280;DHT22;2663;53.588;10.010;2024-01-16T16:00:21;2.50;99.90
5280;DHT22;2663;53.588;10.010;2024-01-16T16:02:50;2.60;99.90
5280;DHT22;2663;53.588;10.010;2024-01-16T16:05:17;2.50;99.90
5280;DHT22;2663;53.588;10.010;2024-01-16T16:07:46;2.50;99.90
5280;DHT22;2663;53.588;10.010;2024-01-16T16:10:12;2.30;99.90
5280;DHT22;2663;53.588;10.010;2024-01-16T16:12:39;2.30;99.90
5280;DHT22;2663;53.588;10.010;2024-01-16T16:15:06;2.50;99.90
5280;DHT22;2663;53.588;10.010;2024-01-16T16:17:33;2.30;99.90
5280;DHT22;2663;53.588;10.010;2024-01-16T16:20:00;2.40;99.90
5280;DHT22;2663;53.588;10.010;2024-01-16T16:22:26;2.30;99.90